createdAt,value
2023-03-22T00:00:16.460Z,6.79
2023-03-22T00:02:44.432Z,6.70
2023-03-22T00:05:11.217Z,6.65
2023-03-22T00:07:38.243Z,6.68
2023-03-22T00:10:06.116Z,6.70
2023-03-22T00:12:32.915Z,6.70
2023-03-22T00:14:59.721Z,6.67
2023-03-22T00:17:26.604Z,6.63
2023-03-22T00:19:54.758Z,6.62
2023-03-22T00:22:21.576Z,6.63
2023-03-22T00:24:48.338Z,6.69
2023-03-22T00:27:15.120Z,6.75
2023-03-22T00:29:42.039Z,6.82
2023-03-22T00:32:08.837Z,6.81
2023-03-22T00:34:35.598Z,6.73
2023-03-22T00:37:03.936Z,6.68
2023-03-22T00:39:30.740Z,6.72
2023-03-22T00:41:57.522Z,6.69
2023-03-22T00:44:24.454Z,6.56
2023-03-22T00:46:51.268Z,6.59
2023-03-22T00:49:18.234Z,6.66
2023-03-22T00:51:45.016Z,6.70
2023-03-22T00:54:13.242Z,6.74
2023-03-22T00:56:40.006Z,6.72
2023-03-22T00:59:07.245Z,6.74
2023-03-22T01:01:34.115Z,6.74
2023-03-22T01:04:01.030Z,6.76
2023-03-22T01:06:27.813Z,6.76
2023-03-22T01:08:54.686Z,6.73
2023-03-22T01:11:23.898Z,6.70
2023-03-22T01:13:50.917Z,6.63
2023-03-22T01:16:18.363Z,6.59
2023-03-22T01:18:45.248Z,6.61
2023-03-22T01:21:12.090Z,6.55
2023-03-22T01:23:38.870Z,6.52
2023-03-22T01:26:06.398Z,6.52
2023-03-22T01:28:34.610Z,6.49
2023-03-22T01:31:02.773Z,6.49
2023-03-22T01:33:29.658Z,6.49
2023-03-22T01:35:56.537Z,6.50
2023-03-22T01:38:23.305Z,6.44
2023-03-22T01:40:50.070Z,6.42
2023-03-22T01:43:17.297Z,6.39
2023-03-22T01:45:47.507Z,6.37
2023-03-22T01:48:45.634Z,6.37
2023-03-22T01:51:16.278Z,6.34
2023-03-22T01:53:46.102Z,6.34
2023-03-22T01:56:13.588Z,6.32
2023-03-22T01:58:42.174Z,6.26
2023-03-22T02:01:11.361Z,6.20
2023-03-22T02:03:44.957Z,6.16
2023-03-22T02:06:11.951Z,6.15
2023-03-22T02:08:38.833Z,6.08
2023-03-22T02:11:05.878Z,6.10
2023-03-22T02:14:01.381Z,6.13
2023-03-22T02:16:43.533Z,6.16
2023-03-22T02:19:43.574Z,6.16
2023-03-22T02:22:31.404Z,6.12
2023-03-22T02:25:33.667Z,6.13
2023-03-22T02:28:14.335Z,6.12
2023-03-22T02:31:06.904Z,6.11
2023-03-22T02:34:05.668Z,6.09
2023-03-22T02:37:09.301Z,6.06
2023-03-22T02:39:44.597Z,6.03
2023-03-22T02:42:25.017Z,6.01
2023-03-22T02:45:01.813Z,5.97
2023-03-22T02:47:37.461Z,6.00
2023-03-22T02:50:10.644Z,5.99
2023-03-22T02:52:42.494Z,5.99
2023-03-22T02:55:16.446Z,5.97
2023-03-22T02:57:48.386Z,5.91
2023-03-22T03:00:17.904Z,5.87
2023-03-22T03:02:49.852Z,5.81
2023-03-22T03:05:19.129Z,5.71
2023-03-22T03:07:49.812Z,5.67
2023-03-22T03:10:20.571Z,5.63
2023-03-22T03:12:47.440Z,5.66
2023-03-22T03:15:16.534Z,5.60
2023-03-22T03:17:57.440Z,5.52
2023-03-22T03:20:30.444Z,5.46
2023-03-22T03:23:14.220Z,5.43
2023-03-22T03:25:49.482Z,5.37
2023-03-22T03:28:24.350Z,5.31
2023-03-22T03:30:57.322Z,5.28
2023-03-22T03:33:28.104Z,5.22
2023-03-22T03:36:01.436Z,5.21
2023-03-22T03:38:31.778Z,5.16
2023-03-22T03:41:03.730Z,5.14
2023-03-22T03:43:31.770Z,5.14
2023-03-22T03:45:58.651Z,5.08
2023-03-22T03:48:29.338Z,4.96
2023-03-22T03:50:57.763Z,4.78
2023-03-22T03:53:24.629Z,4.73
2023-03-22T03:55:51.406Z,4.76
2023-03-22T03:58:19.553Z,4.79
2023-03-22T04:00:46.976Z,4.75
2023-03-22T04:03:14.382Z,4.71
2023-03-22T04:05:41.287Z,4.67
2023-03-22T04:08:08.662Z,4.63
2023-03-22T04:10:35.468Z,4.60
2023-03-22T04:13:02.403Z,4.54
2023-03-22T04:15:30.638Z,4.50
2023-03-22T04:17:57.413Z,4.44
2023-03-22T04:20:24.408Z,4.47
2023-03-22T04:22:51.166Z,4.51
2023-03-22T04:25:18.362Z,4.48
2023-03-22T04:27:46.853Z,4.42
2023-03-22T04:30:15.192Z,4.35
2023-03-22T04:32:43.328Z,4.33
2023-03-22T04:35:10.072Z,4.39
2023-03-22T04:37:36.866Z,4.38
2023-03-22T04:40:04.021Z,4.39
2023-03-22T04:42:30.840Z,4.41
2023-03-22T04:44:57.637Z,4.46
2023-03-22T04:47:24.504Z,4.44
2023-03-22T04:49:52.732Z,4.46
2023-03-22T04:52:19.816Z,4.52
2023-03-22T04:54:46.625Z,4.55
2023-03-22T04:57:13.380Z,4.57
2023-03-22T04:59:40.411Z,4.56
2023-03-22T05:02:07.195Z,4.56
2023-03-22T05:04:34.117Z,4.64
2023-03-22T05:07:03.743Z,4.75
2023-03-22T05:09:30.626Z,4.79
2023-03-22T05:11:57.455Z,4.79
2023-03-22T05:14:28.429Z,4.76
2023-03-22T05:16:59.271Z,4.72
2023-03-22T05:22:50.365Z,4.63
2023-03-22T05:25:59.805Z,4.64
2023-03-22T05:29:04.931Z,4.64
2023-03-22T05:31:31.991Z,4.60
2023-03-22T05:34:07.451Z,4.59
2023-03-22T05:36:38.912Z,4.51
2023-03-22T05:39:23.009Z,4.51
2023-03-22T05:41:50.411Z,4.48
2023-03-22T05:44:38.916Z,4.49
2023-03-22T05:47:52.734Z,4.46
2023-03-22T05:50:22.136Z,4.41
2023-03-22T05:53:01.325Z,4.41
2023-03-22T05:59:10.227Z,4.47
2023-03-22T06:02:02.203Z,4.47
2023-03-22T06:04:40.816Z,4.45
2023-03-22T06:07:08.087Z,4.44
2023-03-22T06:09:35.067Z,4.42
2023-03-22T06:12:04.541Z,4.37
2023-03-22T06:14:31.652Z,4.36
2023-03-22T06:16:58.511Z,4.33
2023-03-22T06:19:25.384Z,4.31
2023-03-22T06:21:52.253Z,4.31
2023-03-22T06:24:19.288Z,4.30
2023-03-22T06:26:46.123Z,4.28
2023-03-22T06:29:14.584Z,4.31
2023-03-22T06:31:41.458Z,4.30
2023-03-22T06:34:08.220Z,4.34
2023-03-22T06:36:35.053Z,4.65
2023-03-22T06:39:01.819Z,4.92
2023-03-22T06:41:28.533Z,5.02
2023-03-22T06:43:55.310Z,4.98
2023-03-22T06:46:23.589Z,5.02
2023-03-22T06:48:50.653Z,5.28
2023-03-22T06:51:17.550Z,5.64
2023-03-22T06:53:44.586Z,5.98
2023-03-22T06:56:11.378Z,6.17
2023-03-22T06:58:38.221Z,6.56
2023-03-22T07:01:05.581Z,6.91
2023-03-22T07:03:33.815Z,7.16
2023-03-22T07:06:01.699Z,7.47
2023-03-22T07:08:28.651Z,7.76
2023-03-22T07:10:55.531Z,8.00
2023-03-22T07:13:22.384Z,8.34
2023-03-22T07:15:49.277Z,8.56
2023-03-22T07:18:16.047Z,8.93
2023-03-22T07:20:45.734Z,9.25
2023-03-22T07:23:12.556Z,9.71
2023-03-22T07:25:39.331Z,9.97
2023-03-22T07:28:06.140Z,9.96
2023-03-22T07:30:32.912Z,9.98
2023-03-22T07:33:00.706Z,9.99
2023-03-22T07:35:27.647Z,9.86
2023-03-22T07:37:55.951Z,10.15
2023-03-22T07:40:22.993Z,10.39
2023-03-22T07:42:50.426Z,10.68
2023-03-22T07:45:18.183Z,10.91
2023-03-22T07:47:45.719Z,11.10
2023-03-22T07:50:14.715Z,11.38
2023-03-22T07:52:42.801Z,11.47
2023-03-22T07:55:13.039Z,11.67
2023-03-22T07:57:40.124Z,11.85
2023-03-22T08:00:08.525Z,11.96
2023-03-22T08:02:35.291Z,12.12
2023-03-22T08:05:02.361Z,12.26
2023-03-22T08:07:29.262Z,12.43
2023-03-22T08:09:58.228Z,12.54
2023-03-22T08:12:26.386Z,12.75
2023-03-22T08:14:53.325Z,12.87
2023-03-22T08:17:21.063Z,12.93
2023-03-22T08:19:47.875Z,13.05
2023-03-22T08:22:14.713Z,13.20
2023-03-22T08:24:41.473Z,13.29
2023-03-22T08:27:08.488Z,13.39
2023-03-22T08:29:36.623Z,13.54
2023-03-22T08:32:03.673Z,13.64
2023-03-22T08:34:30.626Z,13.76
2023-03-22T08:36:57.436Z,13.87
2023-03-22T08:39:24.752Z,14.02
2023-03-22T08:41:52.116Z,14.14
2023-03-22T08:44:19.003Z,14.24
2023-03-22T08:46:47.122Z,14.30
2023-03-22T08:49:13.955Z,14.35
2023-03-22T08:51:40.848Z,14.39
2023-03-22T08:54:07.686Z,14.30
2023-03-22T08:56:34.623Z,14.38
2023-03-22T08:59:01.355Z,14.42
2023-03-22T09:01:28.308Z,14.55
2023-03-22T09:03:56.610Z,14.59
2023-03-22T09:06:23.443Z,14.64
2023-03-22T09:08:50.206Z,14.68
2023-03-22T09:11:18.080Z,14.79
2023-03-22T09:13:45.512Z,14.85
2023-03-22T09:16:12.421Z,14.88
2023-03-22T09:18:39.924Z,14.97
2023-03-22T09:21:09.209Z,15.02
2023-03-22T09:23:37.264Z,15.17
2023-03-22T09:26:06.028Z,15.27
2023-03-22T09:28:33.163Z,15.35
2023-03-22T09:31:00.611Z,15.47
2023-03-22T09:33:27.628Z,15.57
2023-03-22T09:35:55.268Z,15.59
2023-03-22T09:38:27.669Z,15.45
2023-03-22T09:40:58.577Z,15.61
2023-03-22T09:43:27.452Z,15.51
2023-03-22T09:45:54.832Z,15.45
2023-03-22T09:48:29.543Z,15.53
2023-03-22T09:50:57.246Z,15.53
2023-03-22T09:53:27.469Z,15.62
2023-03-22T09:56:00.244Z,15.76
2023-03-22T09:58:32.784Z,15.91
2023-03-22T10:01:03.126Z,16.05
2023-03-22T10:03:59.063Z,16.16
2023-03-22T10:06:28.989Z,16.24
2023-03-22T10:09:08.914Z,16.41
2023-03-22T10:11:45.461Z,16.49
2023-03-22T10:14:27.749Z,16.61
2023-03-22T10:16:57.352Z,16.73
2023-03-22T10:19:30.898Z,16.87
2023-03-22T10:22:00.965Z,16.98
2023-03-22T10:24:33.001Z,17.15
2023-03-22T10:27:00.128Z,17.18
2023-03-22T10:29:32.586Z,17.25
2023-03-22T10:32:13.080Z,17.33
2023-03-22T10:34:39.952Z,17.48
2023-03-22T10:37:10.425Z,17.65
2023-03-22T10:39:41.855Z,17.79
2023-03-22T10:42:13.400Z,17.84
2023-03-22T10:44:46.198Z,17.95
2023-03-22T10:47:14.284Z,17.97
2023-03-22T10:49:45.672Z,18.01
2023-03-22T10:52:38.201Z,18.01
2023-03-22T10:55:11.729Z,18.12
2023-03-22T10:57:38.816Z,18.20
2023-03-22T11:00:07.522Z,18.36
2023-03-22T11:02:34.979Z,18.44
2023-03-22T11:05:03.682Z,18.53
2023-03-22T11:07:33.920Z,18.53
2023-03-22T11:10:21.223Z,18.58
2023-03-22T11:12:50.754Z,18.65
2023-03-22T11:15:27.260Z,18.57
2023-03-22T11:17:59.284Z,18.65
2023-03-22T11:20:26.436Z,18.70
2023-03-22T11:22:53.524Z,18.75
2023-03-22T11:25:28.682Z,18.82
2023-03-22T11:27:57.995Z,18.85
2023-03-22T11:30:27.168Z,18.99
2023-03-22T11:33:01.826Z,18.90
2023-03-22T11:35:30.798Z,18.58
2023-03-22T11:37:58.229Z,18.39
2023-03-22T11:40:28.297Z,18.29
2023-03-22T11:42:58.616Z,18.43
2023-03-22T11:45:28.348Z,18.62
2023-03-22T11:48:01.383Z,18.23
2023-03-22T11:50:30.995Z,18.19
2023-03-22T11:52:57.988Z,18.20
2023-03-22T11:55:26.236Z,18.24
2023-03-22T11:57:55.409Z,18.18
2023-03-22T12:00:26.486Z,17.74
2023-03-22T12:02:58.111Z,17.99
2023-03-22T12:05:26.753Z,18.23
2023-03-22T12:07:58.948Z,18.29
2023-03-22T12:10:31.038Z,18.32
2023-03-22T12:13:01.755Z,18.59
2023-03-22T12:15:33.065Z,18.77
2023-03-22T12:18:07.676Z,18.67
2023-03-22T12:20:42.376Z,18.64
2023-03-22T12:23:15.188Z,18.78
2023-03-22T12:25:49.973Z,19.06
2023-03-22T12:28:20.160Z,18.99
2023-03-22T12:30:51.806Z,19.27
2023-03-22T12:33:22.566Z,19.03
2023-03-22T12:35:52.912Z,18.59
2023-03-22T12:38:26.622Z,18.68
2023-03-22T12:40:57.815Z,18.53
2023-03-22T12:43:38.793Z,18.36
2023-03-22T12:46:10.114Z,17.98
2023-03-22T12:48:44.038Z,18.22
2023-03-22T12:51:14.492Z,18.18
2023-03-22T12:53:45.129Z,18.04
2023-03-22T12:56:16.621Z,18.32
2023-03-22T12:58:48.391Z,18.51
2023-03-22T13:01:24.847Z,18.49
2023-03-22T13:03:53.321Z,18.70
2023-03-22T13:06:32.533Z,18.73
2023-03-22T13:09:15.092Z,18.67
2023-03-22T13:11:44.805Z,18.41
2023-03-22T13:14:34.074Z,17.76
2023-03-22T13:17:00.979Z,17.80
2023-03-22T13:19:33.240Z,17.65
2023-03-22T13:22:20.979Z,17.55
2023-03-22T13:24:59.408Z,17.67
2023-03-22T13:27:37.530Z,17.82
2023-03-22T13:30:06.213Z,18.02
2023-03-22T13:32:33.552Z,18.13
2023-03-22T13:35:00.730Z,17.90
2023-03-22T13:37:32.254Z,18.08
2023-03-22T13:39:59.193Z,18.18
2023-03-22T13:42:35.691Z,18.32
2023-03-22T13:45:08.835Z,18.13
2023-03-22T13:47:43.143Z,18.25
2023-03-22T13:50:14.431Z,18.22
2023-03-22T13:52:44.555Z,18.23
2023-03-22T13:55:31.880Z,18.23
2023-03-22T13:57:59.604Z,18.24
2023-03-22T14:00:48.402Z,18.31
2023-03-22T14:03:23.321Z,18.27
2023-03-22T14:06:04.102Z,18.31
2023-03-22T14:08:34.532Z,18.26
2023-03-22T14:11:10.132Z,18.13
2023-03-22T14:13:43.471Z,18.05
2023-03-22T14:16:18.116Z,18.01
2023-03-22T14:18:48.630Z,17.93
2023-03-22T14:21:21.539Z,17.89
